sensor_id;sensor_type;location;lat;lon;timestamp;P1;durP1;ratioP1;P2;durP2;ratioP2
46643;SDS011;32371;51.032;5.816;2023-04-24T00:01:12;3.47;;;2.40;;
46643;SDS011;32371;51.032;5.816;2023-04-24T00:03:38;3.72;;;2.25;;
46643;SDS011;32371;51.032;5.816;2023-04-24T00:06:04;3.88;;;2.38;;
46643;SDS011;32371;51.032;5.816;2023-04-24T00:08:31;4.93;;;2.00;;
46643;SDS011;32371;51.032;5.816;2023-04-24T00:10:57;7.25;;;2.38;;
46643;SDS011;32371;51.032;5.816;2023-04-24T00:13:22;5.53;;;2.60;;
46643;SDS011;32371;51.032;5.816;2023-04-24T00:15:48;5.57;;;2.40;;
46643;SDS011;32371;51.032;5.816;2023-04-24T00:18:13;5.50;;;2.00;;
46643;SDS011;32371;51.032;5.816;2023-04-24T00:20:39;4.00;;;2.30;;
46643;SDS011;32371;51.032;5.816;2023-04-24T00:23:04;3.67;;;2.15;;
46643;SDS011;32371;51.032;5.816;2023-04-24T00:25:30;6.18;;;2.92;;
46643;SDS011;32371;51.032;5.816;2023-04-24T00:27:55;6.07;;;2.45;;
46643;SDS011;32371;51.032;5.816;2023-04-24T00:30:20;4.68;;;3.22;;
46643;SDS011;32371;51.032;5.816;2023-04-24T00:32:46;7.85;;;3.97;;
46643;SDS011;32371;51.032;5.816;2023-04-24T00:35:11;8.20;;;2.75;;
46643;SDS011;32371;51.032;5.816;2023-04-24T00:37:37;8.63;;;2.80;;
46643;SDS011;32371;51.032;5.816;2023-04-24T00:40:02;5.45;;;3.63;;
46643;SDS011;32371;51.032;5.816;2023-04-24T00:42:28;4.93;;;2.60;;
46643;SDS011;32371;51.032;5.816;2023-04-24T00:44:53;9.82;;;3.92;;
46643;SDS011;32371;51.032;5.816;2023-04-24T00:47:19;5.95;;;3.25;;
46643;SDS011;32371;51.032;5.816;2023-04-24T00:49:46;7.45;;;3.83;;
46643;SDS011;32371;51.032;5.816;2023-04-24T00:52:12;10.20;;;3.00;;
46643;SDS011;32371;51.032;5.816;2023-04-24T00:54:42;6.72;;;3.38;;
46643;SDS011;32371;51.032;5.816;2023-04-24T00:57:09;12.27;;;3.50;;
46643;SDS011;32371;51.032;5.816;2023-04-24T00:59:34;9.27;;;3.65;;
46643;SDS011;32371;51.032;5.816;2023-04-24T01:02:00;11.23;;;3.72;;
46643;SDS011;32371;51.032;5.816;2023-04-24T01:04:26;6.47;;;3.35;;
46643;SDS011;32371;51.032;5.816;2023-04-24T01:06:52;9.00;;;3.80;;
46643;SDS011;32371;51.032;5.816;2023-04-24T01:09:18;8.52;;;3.55;;
46643;SDS011;32371;51.032;5.816;2023-04-24T01:11:43;13.18;;;4.15;;
46643;SDS011;32371;51.032;5.816;2023-04-24T01:14:09;7.05;;;3.80;;
46643;SDS011;32371;51.032;5.816;2023-04-24T01:16:34;6.43;;;3.92;;
46643;SDS011;32371;51.032;5.816;2023-04-24T01:19:00;9.23;;;4.15;;
46643;SDS011;32371;51.032;5.816;2023-04-24T01:21:26;10.98;;;4.50;;
46643;SDS011;32371;51.032;5.816;2023-04-24T01:23:54;12.93;;;5.20;;
46643;SDS011;32371;51.032;5.816;2023-04-24T01:26:20;13.02;;;4.57;;
46643;SDS011;32371;51.032;5.816;2023-04-24T01:28:46;9.77;;;4.53;;
46643;SDS011;32371;51.032;5.816;2023-04-24T01:31:13;11.23;;;4.55;;
46643;SDS011;32371;51.032;5.816;2023-04-24T01:33:39;11.90;;;5.43;;
46643;SDS011;32371;51.032;5.816;2023-04-24T01:36:04;11.93;;;5.07;;
46643;SDS011;32371;51.032;5.816;2023-04-24T01:38:30;12.00;;;5.22;;
46643;SDS011;32371;51.032;5.816;2023-04-24T01:40:55;15.23;;;5.53;;
46643;SDS011;32371;51.032;5.816;2023-04-24T01:43:21;8.73;;;4.93;;
46643;SDS011;32371;51.032;5.816;2023-04-24T01:45:46;14.25;;;5.50;;
46643;SDS011;32371;51.032;5.816;2023-04-24T01:48:12;10.90;;;4.93;;
46643;SDS011;32371;51.032;5.816;2023-04-24T01:50:38;12.55;;;5.18;;
46643;SDS011;32371;51.032;5.816;2023-04-24T01:53:03;11.75;;;4.63;;
46643;SDS011;32371;51.032;5.816;2023-04-24T01:55:29;7.93;;;4.00;;
46643;SDS011;32371;51.032;5.816;2023-04-24T01:57:55;9.52;;;5.70;;
46643;SDS011;32371;51.032;5.816;2023-04-24T02:00:20;8.05;;;4.88;;
46643;SDS011;32371;51.032;5.816;2023-04-24T02:02:46;17.13;;;5.00;;
46643;SDS011;32371;51.032;5.816;2023-04-24T02:05:11;9.68;;;5.63;;
46643;SDS011;32371;51.032;5.816;2023-04-24T02:07:37;10.15;;;4.60;;
46643;SDS011;32371;51.032;5.816;2023-04-24T02:10:02;10.57;;;4.90;;
46643;SDS011;32371;51.032;5.816;2023-04-24T02:12:29;14.32;;;5.57;;
46643;SDS011;32371;51.032;5.816;2023-04-24T02:14:54;10.30;;;4.47;;
46643;SDS011;32371;51.032;5.816;2023-04-24T02:17:20;8.82;;;4.80;;
46643;SDS011;32371;51.032;5.816;2023-04-24T02:19:45;9.75;;;4.55;;
46643;SDS011;32371;51.032;5.816;2023-04-24T02:22:11;15.48;;;5.25;;
46643;SDS011;32371;51.032;5.816;2023-04-24T02:24:37;7.10;;;4.32;;
46643;SDS011;32371;51.032;5.816;2023-04-24T02:27:02;8.25;;;4.15;;
46643;SDS011;32371;51.032;5.816;2023-04-24T02:29:28;11.30;;;4.60;;
46643;SDS011;32371;51.032;5.816;2023-04-24T02:31:53;7.28;;;4.25;;
46643;SDS011;32371;51.032;5.816;2023-04-24T02:34:19;12.23;;;4.82;;
46643;SDS011;32371;51.032;5.816;2023-04-24T02:36:44;9.63;;;5.28;;
46643;SDS011;32371;51.032;5.816;2023-04-24T02:39:10;10.15;;;4.40;;
46643;SDS011;32371;51.032;5.816;2023-04-24T02:41:35;8.23;;;4.47;;
46643;SDS011;32371;51.032;5.816;2023-04-24T02:44:00;8.18;;;4.53;;
46643;SDS011;32371;51.032;5.816;2023-04-24T02:46:26;13.88;;;4.82;;
46643;SDS011;32371;51.032;5.816;2023-04-24T02:48:51;9.20;;;4.68;;
46643;SDS011;32371;51.032;5.816;2023-04-24T02:51:17;8.32;;;4.38;;
46643;SDS011;32371;51.032;5.816;2023-04-24T02:53:42;8.77;;;4.97;;
46643;SDS011;32371;51.032;5.816;2023-04-24T02:56:07;7.80;;;4.63;;
46643;SDS011;32371;51.032;5.816;2023-04-24T02:58:33;11.07;;;4.63;;
46643;SDS011;32371;51.032;5.816;2023-04-24T03:00:58;9.27;;;4.65;;
46643;SDS011;32371;51.032;5.816;2023-04-24T03:03:24;11.85;;;4.10;;
46643;SDS011;32371;51.032;5.816;2023-04-24T03:05:50;13.48;;;4.80;;
46643;SDS011;32371;51.032;5.816;2023-04-24T03:08:15;12.57;;;4.15;;
46643;SDS011;32371;51.032;5.816;2023-04-24T03:10:41;7.22;;;4.07;;
46643;SDS011;32371;51.032;5.816;2023-04-24T03:13:06;11.00;;;4.30;;
46643;SDS011;32371;51.032;5.816;2023-04-24T03:15:31;10.45;;;4.63;;
46643;SDS011;32371;51.032;5.816;2023-04-24T03:17:57;11.07;;;4.97;;
46643;SDS011;32371;51.032;5.816;2023-04-24T03:20:22;10.18;;;3.97;;
46643;SDS011;32371;51.032;5.816;2023-04-24T03:22:48;5.13;;;3.22;;
46643;SDS011;32371;51.032;5.816;2023-04-24T03:25:13;6.18;;;4.00;;
46643;SDS011;32371;51.032;5.816;2023-04-24T03:27:38;6.35;;;3.70;;
46643;SDS011;32371;51.032;5.816;2023-04-24T03:30:05;5.93;;;4.03;;
46643;SDS011;32371;51.032;5.816;2023-04-24T03:32:34;7.97;;;3.85;;
46643;SDS011;32371;51.032;5.816;2023-04-24T03:34:59;7.53;;;4.28;;
46643;SDS011;32371;51.032;5.816;2023-04-24T03:37:25;7.03;;;3.90;;
46643;SDS011;32371;51.032;5.816;2023-04-24T03:39:51;5.90;;;3.35;;
46643;SDS011;32371;51.032;5.816;2023-04-24T03:42:16;9.68;;;3.88;;
46643;SDS011;32371;51.032;5.816;2023-04-24T03:44:42;7.55;;;4.10;;
46643;SDS011;32371;51.032;5.816;2023-04-24T03:47:07;8.13;;;4.70;;
46643;SDS011;32371;51.032;5.816;2023-04-24T03:49:32;10.10;;;3.78;;
46643;SDS011;32371;51.032;5.816;2023-04-24T03:51:58;8.85;;;3.78;;
46643;SDS011;32371;51.032;5.816;2023-04-24T03:54:23;8.20;;;4.07;;
46643;SDS011;32371;51.032;5.816;2023-04-24T03:56:49;5.38;;;3.75;;
46643;SDS011;32371;51.032;5.816;2023-04-24T03:59:14;7.03;;;4.40;;
46643;SDS011;32371;51.032;5.816;2023-04-24T04:01:40;6.18;;;4.13;;
46643;SDS011;32371;51.032;5.816;2023-04-24T04:04:05;9.00;;;4.05;;
46643;SDS011;32371;51.032;5.816;2023-04-24T04:06:31;8.98;;;3.70;;
46643;SDS011;32371;51.032;5.816;2023-04-24T04:08:57;7.57;;;3.75;;
46643;SDS011;32371;51.032;5.816;2023-04-24T04:11:23;4.38;;;3.78;;
46643;SDS011;32371;51.032;5.816;2023-04-24T04:13:48;7.90;;;3.88;;
46643;SDS011;32371;51.032;5.816;2023-04-24T04:16:14;9.65;;;3.97;;
46643;SDS011;32371;51.032;5.816;2023-04-24T04:18:41;7.28;;;4.15;;
46643;SDS011;32371;51.032;5.816;2023-04-24T04:21:07;6.70;;;3.22;;
46643;SDS011;32371;51.032;5.816;2023-04-24T04:23:33;8.50;;;3.85;;
46643;SDS011;32371;51.032;5.816;2023-04-24T04:25:58;8.18;;;4.05;;
46643;SDS011;32371;51.032;5.816;2023-04-24T04:28:23;6.55;;;4.32;;
46643;SDS011;32371;51.032;5.816;2023-04-24T04:30:49;9.38;;;3.88;;
46643;SDS011;32371;51.032;5.816;2023-04-24T04:33:18;11.48;;;3.80;;
46643;SDS011;32371;51.032;5.816;2023-04-24T04:35:47;5.82;;;3.80;;
46643;SDS011;32371;51.032;5.816;2023-04-24T04:38:17;8.18;;;4.32;;
46643;SDS011;32371;51.032;5.816;2023-04-24T04:40:43;6.30;;;3.92;;
46643;SDS011;32371;51.032;5.816;2023-04-24T04:43:09;8.27;;;3.88;;
46643;SDS011;32371;51.032;5.816;2023-04-24T04:45:35;6.22;;;3.83;;
46643;SDS011;32371;51.032;5.816;2023-04-24T04:48:02;5.45;;;3.30;;
46643;SDS011;32371;51.032;5.816;2023-04-24T04:50:28;7.35;;;3.58;;
46643;SDS011;32371;51.032;5.816;2023-04-24T04:52:54;8.48;;;4.00;;
46643;SDS011;32371;51.032;5.816;2023-04-24T04:55:19;6.30;;;4.28;;
46643;SDS011;32371;51.032;5.816;2023-04-24T04:57:45;6.40;;;3.65;;
46643;SDS011;32371;51.032;5.816;2023-04-24T05:00:11;8.50;;;3.40;;
46643;SDS011;32371;51.032;5.816;2023-04-24T05:02:37;4.50;;;3.35;;
46643;SDS011;32371;51.032;5.816;2023-04-24T05:05:03;5.15;;;3.55;;
46643;SDS011;32371;51.032;5.816;2023-04-24T05:07:29;5.45;;;3.60;;
46643;SDS011;32371;51.032;5.816;2023-04-24T05:09:55;4.82;;;3.70;;
46643;SDS011;32371;51.032;5.816;2023-04-24T05:12:20;7.63;;;3.60;;
46643;SDS011;32371;51.032;5.816;2023-04-24T05:14:45;6.22;;;3.33;;
46643;SDS011;32371;51.032;5.816;2023-04-24T05:17:11;7.35;;;3.08;;
46643;SDS011;32371;51.032;5.816;2023-04-24T05:19:36;5.82;;;4.03;;
46643;SDS011;32371;51.032;5.816;2023-04-24T05:22:03;5.82;;;3.60;;
46643;SDS011;32371;51.032;5.816;2023-04-24T05:24:31;8.10;;;4.00;;
46643;SDS011;32371;51.032;5.816;2023-04-24T05:26:57;5.43;;;3.80;;
46643;SDS011;32371;51.032;5.816;2023-04-24T05:29:23;4.70;;;3.15;;
46643;SDS011;32371;51.032;5.816;2023-04-24T05:31:49;6.03;;;2.63;;
46643;SDS011;32371;51.032;5.816;2023-04-24T05:34:14;6.50;;;3.25;;
46643;SDS011;32371;51.032;5.816;2023-04-24T05:36:41;5.10;;;2.83;;
46643;SDS011;32371;51.032;5.816;2023-04-24T05:39:07;4.80;;;2.80;;
46643;SDS011;32371;51.032;5.816;2023-04-24T05:41:33;5.22;;;2.72;;
46643;SDS011;32371;51.032;5.816;2023-04-24T05:43:59;4.47;;;2.33;;
46643;SDS011;32371;51.032;5.816;2023-04-24T05:46:24;2.45;;;1.90;;
46643;SDS011;32371;51.032;5.816;2023-04-24T05:48:50;5.35;;;1.95;;
46643;SDS011;32371;51.032;5.816;2023-04-24T05:51:15;5.43;;;2.28;;
46643;SDS011;32371;51.032;5.816;2023-04-24T05:53:40;3.97;;;2.25;;
46643;SDS011;32371;51.032;5.816;2023-04-24T05:56:06;4.82;;;1.70;;
46643;SDS011;32371;51.032;5.816;2023-04-24T05:58:31;3.05;;;2.33;;
46643;SDS011;32371;51.032;5.816;2023-04-24T06:00:56;3.28;;;2.03;;
46643;SDS011;32371;51.032;5.816;2023-04-24T06:03:23;3.65;;;2.22;;
46643;SDS011;32371;51.032;5.816;2023-04-24T06:05:52;3.33;;;2.03;;
46643;SDS011;32371;51.032;5.816;2023-04-24T06:08:18;2.83;;;1.40;;
46643;SDS011;32371;51.032;5.816;2023-04-24T06:10:43;2.58;;;1.83;;
46643;SDS011;32371;51.032;5.816;2023-04-24T06:13:08;2.70;;;1.52;;
46643;SDS011;32371;51.032;5.816;2023-04-24T06:15:34;2.72;;;1.40;;
46643;SDS011;32371;51.032;5.816;2023-04-24T06:18:00;1.80;;;1.13;;
46643;SDS011;32371;51.032;5.816;2023-04-24T06:20:25;2.90;;;1.60;;
46643;SDS011;32371;51.032;5.816;2023-04-24T06:22:51;2.38;;;1.55;;
46643;SDS011;32371;51.032;5.816;2023-04-24T06:25:16;2.08;;;1.50;;
46643;SDS011;32371;51.032;5.816;2023-04-24T06:27:41;1.38;;;1.15;;
46643;SDS011;32371;51.032;5.816;2023-04-24T06:30:07;1.30;;;1.20;;
46643;SDS011;32371;51.032;5.816;2023-04-24T06:32:33;2.47;;;1.27;;
46643;SDS011;32371;51.032;5.816;2023-04-24T06:34:58;1.73;;;1.45;;
46643;SDS011;32371;51.032;5.816;2023-04-24T06:37:24;2.35;;;1.55;;
46643;SDS011;32371;51.032;5.816;2023-04-24T06:39:49;2.47;;;1.25;;
46643;SDS011;32371;51.032;5.816;2023-04-24T06:42:15;2.13;;;1.58;;
46643;SDS011;32371;51.032;5.816;2023-04-24T06:44:40;2.53;;;1.63;;
46643;SDS011;32371;51.032;5.816;2023-04-24T06:47:12;1.40;;;1.30;;
46643;SDS011;32371;51.032;5.816;2023-04-24T06:49:41;2.88;;;1.48;;
46643;SDS011;32371;51.032;5.816;2023-04-24T06:52:06;4.68;;;1.85;;
46643;SDS011;32371;51.032;5.816;2023-04-24T06:54:32;2.80;;;1.48;;
46643;SDS011;32371;51.032;5.816;2023-04-24T06:56:58;3.05;;;1.77;;
46643;SDS011;32371;51.032;5.816;2023-04-24T06:59:25;3.65;;;2.03;;
46643;SDS011;32371;51.032;5.816;2023-04-24T07:01:51;2.38;;;1.80;;
46643;SDS011;32371;51.032;5.816;2023-04-24T07:04:16;2.83;;;1.95;;
46643;SDS011;32371;51.032;5.816;2023-04-24T07:06:42;3.22;;;1.80;;
46643;SDS011;32371;51.032;5.816;2023-04-24T07:09:08;5.80;;;1.98;;
46643;SDS011;32371;51.032;5.816;2023-04-24T07:11:34;6.40;;;2.10;;
46643;SDS011;32371;51.032;5.816;2023-04-24T07:14:02;2.38;;;1.38;;
46643;SDS011;32371;51.032;5.816;2023-04-24T07:16:28;7.32;;;1.95;;
46643;SDS011;32371;51.032;5.816;2023-04-24T07:18:53;3.00;;;1.73;;
46643;SDS011;32371;51.032;5.816;2023-04-24T07:21:18;2.03;;;1.50;;
46643;SDS011;32371;51.032;5.816;2023-04-24T07:23:44;3.60;;;1.63;;
46643;SDS011;32371;51.032;5.816;2023-04-24T07:26:09;3.38;;;1.48;;
46643;SDS011;32371;51.032;5.816;2023-04-24T07:28:35;2.17;;;1.52;;
46643;SDS011;32371;51.032;5.816;2023-04-24T07:31:00;2.88;;;1.58;;
46643;SDS011;32371;51.032;5.816;2023-04-24T07:33:26;2.83;;;1.58;;
46643;SDS011;32371;51.032;5.816;2023-04-24T07:35:52;3.13;;;1.75;;
46643;SDS011;32371;51.032;5.816;2023-04-24T07:38:18;3.92;;;1.70;;
46643;SDS011;32371;51.032;5.816;2023-04-24T07:40:47;3.63;;;1.70;;
46643;SDS011;32371;51.032;5.816;2023-04-24T07:43:13;4.18;;;1.88;;
46643;SDS011;32371;51.032;5.816;2023-04-24T07:45:38;4.90;;;2.00;;
46643;SDS011;32371;51.032;5.816;2023-04-24T07:48:04;3.20;;;2.58;;
46643;SDS011;32371;51.032;5.816;2023-04-24T07:50:30;2.72;;;1.63;;
46643;SDS011;32371;51.032;5.816;2023-04-24T07:52:55;4.00;;;2.10;;
46643;SDS011;32371;51.032;5.816;2023-04-24T07:55:21;3.97;;;2.20;;
46643;SDS011;32371;51.032;5.816;2023-04-24T07:57:46;2.75;;;2.05;;
46643;SDS011;32371;51.032;5.816;2023-04-24T08:00:12;6.30;;;2.70;;
46643;SDS011;32371;51.032;5.816;2023-04-24T08:02:37;3.88;;;2.10;;
46643;SDS011;32371;51.032;5.816;2023-04-24T08:05:03;6.03;;;2.45;;
46643;SDS011;32371;51.032;5.816;2023-04-24T08:07:28;5.10;;;2.42;;
46643;SDS011;32371;51.032;5.816;2023-04-24T08:09:54;4.70;;;2.10;;
46643;SDS011;32371;51.032;5.816;2023-04-24T08:12:19;4.32;;;2.20;;
46643;SDS011;32371;51.032;5.816;2023-04-24T08:14:45;4.40;;;2.17;;
46643;SDS011;32371;51.032;5.816;2023-04-24T08:17:10;5.80;;;3.00;;
46643;SDS011;32371;51.032;5.816;2023-04-24T08:19:36;3.78;;;2.65;;
46643;SDS011;32371;51.032;5.816;2023-04-24T08:22:01;3.55;;;2.33;;
46643;SDS011;32371;51.032;5.816;2023-04-24T08:24:27;5.55;;;2.40;;
46643;SDS011;32371;51.032;5.816;2023-04-24T08:26:52;4.75;;;2.33;;
46643;SDS011;32371;51.032;5.816;2023-04-24T08:29:19;7.03;;;2.08;;
46643;SDS011;32371;51.032;5.816;2023-04-24T08:31:44;6.57;;;1.90;;
46643;SDS011;32371;51.032;5.816;2023-04-24T08:34:10;3.22;;;2.17;;
46643;SDS011;32371;51.032;5.816;2023-04-24T08:36:36;4.22;;;2.30;;
46643;SDS011;32371;51.032;5.816;2023-04-24T08:39:01;6.45;;;2.60;;
46643;SDS011;32371;51.032;5.816;2023-04-24T08:41:27;7.55;;;2.30;;
46643;SDS011;32371;51.032;5.816;2023-04-24T08:43:52;3.10;;;2.42;;
46643;SDS011;32371;51.032;5.816;2023-04-24T08:46:20;7.43;;;2.33;;
46643;SDS011;32371;51.032;5.816;2023-04-24T08:48:45;9.05;;;2.83;;
46643;SDS011;32371;51.032;5.816;2023-04-24T08:51:11;4.57;;;1.70;;
46643;SDS011;32371;51.032;5.816;2023-04-24T08:53:36;3.60;;;2.72;;
46643;SDS011;32371;51.032;5.816;2023-04-24T08:56:02;8.65;;;2.38;;
46643;SDS011;32371;51.032;5.816;2023-04-24T08:58:28;5.20;;;2.22;;
46643;SDS011;32371;51.032;5.816;2023-04-24T09:00:54;8.38;;;2.28;;
46643;SDS011;32371;51.032;5.816;2023-04-24T09:03:20;3.55;;;2.75;;
46643;SDS011;32371;51.032;5.816;2023-04-24T09:05:46;5.72;;;2.42;;
46643;SDS011;32371;51.032;5.816;2023-04-24T09:08:13;4.88;;;2.22;;
46643;SDS011;32371;51.032;5.816;2023-04-24T09:10:39;5.03;;;2.47;;
46643;SDS011;32371;51.032;5.816;2023-04-24T09:13:05;3.70;;;2.13;;
46643;SDS011;32371;51.032;5.816;2023-04-24T09:15:31;4.10;;;2.03;;
46643;SDS011;32371;51.032;5.816;2023-04-24T09:17:57;11.20;;;3.35;;
46643;SDS011;32371;51.032;5.816;2023-04-24T09:20:22;7.03;;;2.35;;
46643;SDS011;32371;51.032;5.816;2023-04-24T09:22:48;4.80;;;2.05;;
46643;SDS011;32371;51.032;5.816;2023-04-24T09:25:13;3.20;;;2.17;;
46643;SDS011;32371;51.032;5.816;2023-04-24T09:27:42;6.82;;;2.33;;
46643;SDS011;32371;51.032;5.816;2023-04-24T09:30:11;5.70;;;1.88;;
46643;SDS011;32371;51.032;5.816;2023-04-24T09:32:37;6.15;;;2.05;;
46643;SDS011;32371;51.032;5.816;2023-04-24T09:35:13;4.05;;;2.00;;
46643;SDS011;32371;51.032;5.816;2023-04-24T09:37:43;3.17;;;1.75;;
46643;SDS011;32371;51.032;5.816;2023-04-24T09:40:14;3.97;;;2.25;;
46643;SDS011;32371;51.032;5.816;2023-04-24T09:42:43;4.93;;;1.70;;
46643;SDS011;32371;51.032;5.816;2023-04-24T09:45:16;3.58;;;2.03;;
46643;SDS011;32371;51.032;5.816;2023-04-24T09:47:41;5.35;;;1.75;;
46643;SDS011;32371;51.032;5.816;2023-04-24T09:52:39;5.82;;;1.98;;
46643;SDS011;32371;51.032;5.816;2023-04-24T09:55:17;3.90;;;2.10;;
46643;SDS011;32371;51.032;5.816;2023-04-24T09:58:17;7.70;;;2.15;;
46643;SDS011;32371;51.032;5.816;2023-04-24T10:00:35;4.00;;;1.75;;
46643;SDS011;32371;51.032;5.816;2023-04-24T10:03:02;3.00;;;1.50;;
46643;SDS011;32371;51.032;5.816;2023-04-24T10:08:13;5.57;;;2.15;;
46643;SDS011;32371;51.032;5.816;2023-04-24T10:10:41;10.20;;;3.05;;
46643;SDS011;32371;51.032;5.816;2023-04-24T10:13:09;5.22;;;1.58;;
46643;SDS011;32371;51.032;5.816;2023-04-24T10:15:35;4.25;;;1.80;;
46643;SDS011;32371;51.032;5.816;2023-04-24T10:18:01;11.00;;;2.47;;
46643;SDS011;32371;51.032;5.816;2023-04-24T10:20:28;8.68;;;1.58;;
46643;SDS011;32371;51.032;5.816;2023-04-24T10:22:57;5.10;;;2.00;;
46643;SDS011;32371;51.032;5.816;2023-04-24T10:25:24;2.17;;;1.70;;
46643;SDS011;32371;51.032;5.816;2023-04-24T10:27:51;5.72;;;1.75;;
46643;SDS011;32371;51.032;5.816;2023-04-24T10:30:18;7.07;;;1.90;;
46643;SDS011;32371;51.032;5.816;2023-04-24T10:32:44;4.78;;;1.50;;
46643;SDS011;32371;51.032;5.816;2023-04-24T10:35:10;4.32;;;1.63;;
46643;SDS011;32371;51.032;5.816;2023-04-24T10:37:38;4.03;;;2.10;;
46643;SDS011;32371;51.032;5.816;2023-04-24T10:40:06;5.13;;;1.75;;
46643;SDS011;32371;51.032;5.816;2023-04-24T10:42:35;7.80;;;2.17;;
46643;SDS011;32371;51.032;5.816;2023-04-24T10:45:20;8.25;;;1.88;;
46643;SDS011;32371;51.032;5.816;2023-04-24T10:47:59;7.82;;;2.47;;
46643;SDS011;32371;51.032;5.816;2023-04-24T10:50:30;9.52;;;2.65;;
46643;SDS011;32371;51.032;5.816;2023-04-24T10:53:11;11.85;;;2.95;;
46643;SDS011;32371;51.032;5.816;2023-04-24T10:55:43;5.82;;;2.58;;
46643;SDS011;32371;51.032;5.816;2023-04-24T10:59:02;6.90;;;1.92;;
46643;SDS011;32371;51.032;5.816;2023-04-24T11:01:27;5.85;;;1.80;;
46643;SDS011;32371;51.032;5.816;2023-04-24T11:04:00;8.68;;;2.15;;
46643;SDS011;32371;51.032;5.816;2023-04-24T11:06:30;6.43;;;2.35;;
46643;SDS011;32371;51.032;5.816;2023-04-24T11:11:29;10.05;;;2.47;;
46643;SDS011;32371;51.032;5.816;2023-04-24T11:19:06;6.95;;;2.22;;
46643;SDS011;32371;51.032;5.816;2023-04-24T11:29:47;8.02;;;2.10;;
46643;SDS011;32371;51.032;5.816;2023-04-24T11:32:35;7.88;;;1.90;;
46643;SDS011;32371;51.032;5.816;2023-04-24T11:35:14;7.28;;;2.22;;
46643;SDS011;32371;51.032;5.816;2023-04-24T11:37:42;3.60;;;1.95;;
46643;SDS011;32371;51.032;5.816;2023-04-24T11:40:11;4.70;;;1.67;;
46643;SDS011;32371;51.032;5.816;2023-04-24T11:42:38;15.63;;;1.58;;
46643;SDS011;32371;51.032;5.816;2023-04-24T11:45:12;4.15;;;1.77;;
46643;SDS011;32371;51.032;5.816;2023-04-24T11:47:41;6.50;;;1.30;;
46643;SDS011;32371;51.032;5.816;2023-04-24T11:50:09;4.60;;;2.28;;
46643;SDS011;32371;51.032;5.816;2023-04-24T11:52:43;5.20;;;2.10;;
46643;SDS011;32371;51.032;5.816;2023-04-24T11:57:45;6.13;;;1.98;;
46643;SDS011;32371;51.032;5.816;2023-04-24T12:00:15;2.75;;;1.42;;
46643;SDS011;32371;51.032;5.816;2023-04-24T12:02:41;7.28;;;1.48;;
46643;SDS011;32371;51.032;5.816;2023-04-24T12:05:07;4.55;;;1.63;;
46643;SDS011;32371;51.032;5.816;2023-04-24T12:07:39;4.07;;;1.52;;
46643;SDS011;32371;51.032;5.816;2023-04-24T12:10:07;5.30;;;1.75;;
46643;SDS011;32371;51.032;5.816;2023-04-24T12:12:34;9.18;;;1.92;;
46643;SDS011;32371;51.032;5.816;2023-04-24T12:15:00;4.53;;;2.30;;
46643;SDS011;32371;51.032;5.816;2023-04-24T12:17:30;3.95;;;2.53;;
46643;SDS011;32371;51.032;5.816;2023-04-24T12:19:57;6.18;;;1.70;;
46643;SDS011;32371;51.032;5.816;2023-04-24T12:22:24;6.32;;;1.67;;
46643;SDS011;32371;51.032;5.816;2023-04-24T12:25:00;8.05;;;1.75;;
46643;SDS011;32371;51.032;5.816;2023-04-24T12:27:33;10.27;;;1.63;;
46643;SDS011;32371;51.032;5.816;2023-04-24T12:29:59;3.58;;;1.88;;
46643;SDS011;32371;51.032;5.816;2023-04-24T12:32:26;2.47;;;1.05;;
46643;SDS011;32371;51.032;5.816;2023-04-24T12:34:52;4.05;;;1.92;;
46643;SDS011;32371;51.032;5.816;2023-04-24T12:37:18;3.83;;;1.30;;
46643;SDS011;32371;51.032;5.816;2023-04-24T12:40:00;9.13;;;1.60;;
46643;SDS011;32371;51.032;5.816;2023-04-24T12:42:32;2.72;;;1.38;;
46643;SDS011;32371;51.032;5.816;2023-04-24T12:45:02;2.25;;;1.25;;
46643;SDS011;32371;51.032;5.816;2023-04-24T12:47:32;8.57;;;1.90;;
46643;SDS011;32371;51.032;5.816;2023-04-24T12:49:57;6.15;;;1.70;;
46643;SDS011;32371;51.032;5.816;2023-04-24T12:52:23;5.45;;;1.60;;
46643;SDS011;32371;51.032;5.816;2023-04-24T12:54:52;7.15;;;1.92;;
46643;SDS011;32371;51.032;5.816;2023-04-24T12:57:18;7.65;;;1.55;;
46643;SDS011;32371;51.032;5.816;2023-04-24T12:59:43;2.70;;;1.30;;
46643;SDS011;32371;51.032;5.816;2023-04-24T13:02:09;5.07;;;1.48;;
46643;SDS011;32371;51.032;5.816;2023-04-24T13:04:35;15.65;;;2.33;;
46643;SDS011;32371;51.032;5.816;2023-04-24T13:07:00;3.70;;;1.60;;
46643;SDS011;32371;51.032;5.816;2023-04-24T13:09:26;5.10;;;1.75;;
46643;SDS011;32371;51.032;5.816;2023-04-24T13:11:51;5.40;;;1.45;;
46643;SDS011;32371;51.032;5.816;2023-04-24T13:14:17;9.63;;;1.90;;
46643;SDS011;32371;51.032;5.816;2023-04-24T13:16:42;2.13;;;1.05;;
46643;SDS011;32371;51.032;5.816;2023-04-24T13:19:07;3.83;;;1.10;;
46643;SDS011;32371;51.032;5.816;2023-04-24T13:21:33;4.93;;;1.55;;
46643;SDS011;32371;51.032;5.816;2023-04-24T13:23:58;3.08;;;1.38;;
46643;SDS011;32371;51.032;5.816;2023-04-24T13:26:23;2.83;;;1.48;;
46643;SDS011;32371;51.032;5.816;2023-04-24T13:28:49;2.58;;;1.40;;
46643;SDS011;32371;51.032;5.816;2023-04-24T13:31:14;3.45;;;1.20;;
46643;SDS011;32371;51.032;5.816;2023-04-24T13:33:40;5.50;;;1.42;;
46643;SDS011;32371;51.032;5.816;2023-04-24T13:36:05;4.78;;;1.50;;
46643;SDS011;32371;51.032;5.816;2023-04-24T13:38:31;10.52;;;1.52;;
46643;SDS011;32371;51.032;5.816;2023-04-24T13:40:56;3.55;;;1.30;;
46643;SDS011;32371;51.032;5.816;2023-04-24T13:43:22;3.13;;;1.25;;
46643;SDS011;32371;51.032;5.816;2023-04-24T13:45:47;2.03;;;1.23;;
46643;SDS011;32371;51.032;5.816;2023-04-24T13:48:13;3.15;;;1.45;;
46643;SDS011;32371;51.032;5.816;2023-04-24T13:50:40;4.43;;;1.17;;
46643;SDS011;32371;51.032;5.816;2023-04-24T13:53:06;3.47;;;1.35;;
46643;SDS011;32371;51.032;5.816;2023-04-24T13:55:32;3.88;;;1.35;;
46643;SDS011;32371;51.032;5.816;2023-04-24T13:57:57;6.07;;;1.38;;
46643;SDS011;32371;51.032;5.816;2023-04-24T14:00:23;4.22;;;1.33;;
46643;SDS011;32371;51.032;5.816;2023-04-24T14:02:49;5.15;;;1.27;;
46643;SDS011;32371;51.032;5.816;2023-04-24T14:05:15;3.05;;;1.20;;
46643;SDS011;32371;51.032;5.816;2023-04-24T14:07:41;6.43;;;1.45;;
46643;SDS011;32371;51.032;5.816;2023-04-24T14:10:06;3.80;;;1.40;;
46643;SDS011;32371;51.032;5.816;2023-04-24T14:12:32;2.92;;;1.25;;
46643;SDS011;32371;51.032;5.816;2023-04-24T14:14:58;2.70;;;1.00;;
46643;SDS011;32371;51.032;5.816;2023-04-24T14:17:23;1.15;;;0.90;;
46643;SDS011;32371;51.032;5.816;2023-04-24T14:19:49;3.30;;;1.10;;
46643;SDS011;32371;51.032;5.816;2023-04-24T14:22:16;2.20;;;1.00;;
46643;SDS011;32371;51.032;5.816;2023-04-24T14:24:42;2.63;;;1.05;;
46643;SDS011;32371;51.032;5.816;2023-04-24T14:27:07;3.40;;;1.10;;
46643;SDS011;32371;51.032;5.816;2023-04-24T14:29:33;5.15;;;1.00;;
46643;SDS011;32371;51.032;5.816;2023-04-24T14:31:58;2.05;;;0.95;;
46643;SDS011;32371;51.032;5.816;2023-04-24T14:34:23;2.22;;;1.13;;
46643;SDS011;32371;51.032;5.816;2023-04-24T14:36:49;4.90;;;1.45;;
46643;SDS011;32371;51.032;5.816;2023-04-24T14:39:14;3.85;;;1.60;;
46643;SDS011;32371;51.032;5.816;2023-04-24T14:41:39;2.33;;;1.65;;
46643;SDS011;32371;51.032;5.816;2023-04-24T14:44:05;9.82;;;1.73;;
46643;SDS011;32371;51.032;5.816;2023-04-24T14:46:31;2.95;;;1.55;;
46643;SDS011;32371;51.032;5.816;2023-04-24T14:48:57;2.92;;;1.80;;
46643;SDS011;32371;51.032;5.816;2023-04-24T14:51:22;1.90;;;1.15;;
46643;SDS011;32371;51.032;5.816;2023-04-24T14:53:48;1.80;;;1.40;;
46643;SDS011;32371;51.032;5.816;2023-04-24T14:56:14;3.42;;;1.50;;
46643;SDS011;32371;51.032;5.816;2023-04-24T14:58:39;4.47;;;1.50;;
46643;SDS011;32371;51.032;5.816;2023-04-24T15:01:05;2.22;;;1.25;;
46643;SDS011;32371;51.032;5.816;2023-04-24T15:03:30;1.92;;;1.25;;
46643;SDS011;32371;51.032;5.816;2023-04-24T15:05:56;3.78;;;1.55;;